sensor_id;sensor_type;location;lat;lon;timestamp;pressure;altitude;pressure_sealevel;temperature;humidity
73941;BME280;62294;48.554;10.202;2023-02-03T00:01:53;97228.75;;;3.45;100.00
73941;BME280;62294;48.554;10.202;2023-02-03T00:04:20;97225.16;;;3.46;100.00
73941;BME280;62294;48.554;10.202;2023-02-03T00:06:46;97237.88;;;3.50;100.00
73941;BME280;62294;48.554;10.202;2023-02-03T00:09:13;97234.75;;;3.37;100.00
73941;BME280;62294;48.554;10.202;2023-02-03T00:11:40;97243.56;;;3.46;100.00
73941;BME280;62294;48.554;10.202;2023-02-03T00:14:07;97237.63;;;3.44;100.00
73941;BME280;62294;48.554;10.202;2023-02-03T00:16:34;97243.16;;;3.41;100.00
73941;BME280;62294;48.554;10.202;2023-02-03T00:19:00;97250.56;;;3.55;100.00
73941;BME280;62294;48.554;10.202;2023-02-03T00:21:27;97239.22;;;3.54;100.00
73941;BME280;62294;48.554;10.202;2023-02-03T00:23:54;97232.84;;;3.57;100.00
73941;BME280;62294;48.554;10.202;2023-02-03T00:26:20;97236.69;;;3.63;100.00
73941;BME280;62294;48.554;10.202;2023-02-03T00:28:47;97234.59;;;3.66;100.00
73941;BME280;62294;48.554;10.202;2023-02-03T00:31:16;97242.47;;;3.66;100.00
73941;BME280;62294;48.554;10.202;2023-02-03T00:33:43;97233.63;;;3.67;100.00
73941;BME280;62294;48.554;10.202;2023-02-03T00:36:10;97230.28;;;3.65;100.00
73941;BME280;62294;48.554;10.202;2023-02-03T00:38:37;97235.63;;;3.55;100.00
73941;BME280;62294;48.554;10.202;2023-02-03T00:41:05;97237.94;;;3.58;100.00
73941;BME280;62294;48.554;10.202;2023-02-03T00:43:32;97247.25;;;3.53;100.00
73941;BME280;62294;48.554;10.202;2023-02-03T00:45:58;97247.31;;;3.43;100.00
73941;BME280;62294;48.554;10.202;2023-02-03T00:48:25;97246.03;;;3.47;100.00
73941;BME280;62294;48.554;10.202;2023-02-03T00:50:52;97239.84;;;3.39;100.00
73941;BME280;62294;48.554;10.202;2023-02-03T00:53:18;97242.28;;;3.50;100.00
73941;BME280;62294;48.554;10.202;2023-02-03T00:55:45;97238.69;;;3.51;100.00
73941;BME280;62294;48.554;10.202;2023-02-03T00:58:11;97243.63;;;3.54;100.00
73941;BME280;62294;48.554;10.202;2023-02-03T01:00:38;97254.41;;;3.60;100.00
73941;BME280;62294;48.554;10.202;2023-02-03T01:03:05;97244.94;;;3.68;100.00
73941;BME280;62294;48.554;10.202;2023-02-03T01:05:31;97230.00;;;3.68;100.00
73941;BME280;62294;48.554;10.202;2023-02-03T01:07:59;97241.06;;;3.72;100.00
73941;BME280;62294;48.554;10.202;2023-02-03T01:10:26;97241.97;;;3.80;100.00
73941;BME280;62294;48.554;10.202;2023-02-03T01:12:54;97246.56;;;3.78;100.00
73941;BME280;62294;48.554;10.202;2023-02-03T01:15:20;97249.44;;;3.85;100.00
73941;BME280;62294;48.554;10.202;2023-02-03T01:17:47;97241.25;;;3.88;100.00
73941;BME280;62294;48.554;10.202;2023-02-03T01:20:14;97261.97;;;3.91;100.00
73941;BME280;62294;48.554;10.202;2023-02-03T01:22:42;97246.75;;;3.94;100.00
73941;BME280;62294;48.554;10.202;2023-02-03T01:25:08;97260.56;;;3.96;100.00
73941;BME280;62294;48.554;10.202;2023-02-03T01:27:35;97251.56;;;3.99;100.00
73941;BME280;62294;48.554;10.202;2023-02-03T01:30:02;97249.44;;;4.02;100.00
73941;BME280;62294;48.554;10.202;2023-02-03T01:32:29;97236.06;;;3.96;100.00
73941;BME280;62294;48.554;10.202;2023-02-03T01:34:55;97214.19;;;3.95;100.00
73941;BME280;62294;48.554;10.202;2023-02-03T01:37:22;97207.41;;;3.93;100.00
73941;BME280;62294;48.554;10.202;2023-02-03T01:39:48;97199.41;;;3.94;100.00
73941;BME280;62294;48.554;10.202;2023-02-03T01:42:15;97214.13;;;3.87;100.00
73941;BME280;62294;48.554;10.202;2023-02-03T01:44:48;97220.34;;;3.86;100.00
73941;BME280;62294;48.554;10.202;2023-02-03T01:47:23;97221.84;;;3.89;100.00
73941;BME280;62294;48.554;10.202;2023-02-03T01:52:43;97237.13;;;3.85;100.00
73941;BME280;62294;48.554;10.202;2023-02-03T01:55:14;97245.53;;;3.89;100.00
73941;BME280;62294;48.554;10.202;2023-02-03T01:57:58;97242.38;;;3.85;100.00
73941;BME280;62294;48.554;10.202;2023-02-03T02:00:26;97222.97;;;3.86;100.00
73941;BME280;62294;48.554;10.202;2023-02-03T02:02:57;97215.09;;;3.86;100.00
73941;BME280;62294;48.554;10.202;2023-02-03T02:05:31;97224.69;;;3.95;100.00
73941;BME280;62294;48.554;10.202;2023-02-03T02:08:01;97219.06;;;3.90;100.00
73941;BME280;62294;48.554;10.202;2023-02-03T02:10:30;97216.31;;;3.92;100.00
73941;BME280;62294;48.554;10.202;2023-02-03T02:12:57;97209.97;;;3.85;100.00
73941;BME280;62294;48.554;10.202;2023-02-03T02:15:43;97210.59;;;3.79;100.00
73941;BME280;62294;48.554;10.202;2023-02-03T02:18:19;97199.47;;;3.85;100.00
73941;BME280;62294;48.554;10.202;2023-02-03T02:26:18;97200.59;;;3.82;100.00
73941;BME280;62294;48.554;10.202;2023-02-03T02:32:20;97193.97;;;3.96;100.00
73941;BME280;62294;48.554;10.202;2023-02-03T02:34:46;97186.91;;;3.96;100.00
73941;BME280;62294;48.554;10.202;2023-02-03T02:40:01;97187.72;;;3.79;100.00
73941;BME280;62294;48.554;10.202;2023-02-03T02:42:59;97185.41;;;3.76;100.00
73941;BME280;62294;48.554;10.202;2023-02-03T02:45:45;97180.66;;;3.80;100.00
73941;BME280;62294;48.554;10.202;2023-02-03T02:48:28;97170.31;;;3.78;100.00
73941;BME280;62294;48.554;10.202;2023-02-03T02:50:59;97176.69;;;3.76;100.00
73941;BME280;62294;48.554;10.202;2023-02-03T02:53:31;97169.31;;;3.79;100.00
73941;BME280;62294;48.554;10.202;2023-02-03T02:56:03;97152.81;;;3.87;100.00
73941;BME280;62294;48.554;10.202;2023-02-03T02:58:34;97165.34;;;3.75;100.00
73941;BME280;62294;48.554;10.202;2023-02-03T03:01:01;97149.28;;;3.78;100.00
73941;BME280;62294;48.554;10.202;2023-02-03T03:03:29;97147.78;;;3.76;100.00
73941;BME280;62294;48.554;10.202;2023-02-03T03:06:06;97154.16;;;3.73;100.00
73941;BME280;62294;48.554;10.202;2023-02-03T03:08:39;97165.28;;;3.67;100.00
73941;BME280;62294;48.554;10.202;2023-02-03T03:11:06;97177.59;;;3.84;100.00
73941;BME280;62294;48.554;10.202;2023-02-03T03:13:38;97192.47;;;3.93;100.00
73941;BME280;62294;48.554;10.202;2023-02-03T03:16:09;97200.44;;;3.84;100.00
73941;BME280;62294;48.554;10.202;2023-02-03T03:18:41;97193.66;;;3.81;100.00
73941;BME280;62294;48.554;10.202;2023-02-03T03:21:13;97181.78;;;3.77;100.00
73941;BME280;62294;48.554;10.202;2023-02-03T03:23:44;97163.31;;;3.69;100.00
73941;BME280;62294;48.554;10.202;2023-02-03T03:26:35;97179.16;;;3.59;100.00
73941;BME280;62294;48.554;10.202;2023-02-03T03:29:18;97174.72;;;3.60;100.00
73941;BME280;62294;48.554;10.202;2023-02-03T03:31:46;97172.38;;;3.57;100.00
73941;BME280;62294;48.554;10.202;2023-02-03T03:34:15;97169.16;;;3.63;100.00
73941;BME280;62294;48.554;10.202;2023-02-03T03:36:47;97180.00;;;3.60;100.00
73941;BME280;62294;48.554;10.202;2023-02-03T03:39:27;97169.81;;;3.65;100.00
73941;BME280;62294;48.554;10.202;2023-02-03T03:44:37;97169.81;;;3.65;100.00
73941;BME280;62294;48.554;10.202;2023-02-03T03:47:45;97184.03;;;3.72;100.00
73941;BME280;62294;48.554;10.202;2023-02-03T03:50:18;97194.50;;;3.82;100.00
73941;BME280;62294;48.554;10.202;2023-02-03T03:52:48;97198.13;;;3.81;100.00
73941;BME280;62294;48.554;10.202;2023-02-03T03:55:18;97196.16;;;3.83;100.00
73941;BME280;62294;48.554;10.202;2023-02-03T03:58:06;97200.75;;;3.81;100.00
73941;BME280;62294;48.554;10.202;2023-02-03T04:00:37;97199.53;;;3.75;100.00
73941;BME280;62294;48.554;10.202;2023-02-03T04:03:10;97206.00;;;3.81;100.00
73941;BME280;62294;48.554;10.202;2023-02-03T04:05:39;97210.50;;;3.88;100.00
73941;BME280;62294;48.554;10.202;2023-02-03T04:08:06;97212.84;;;3.91;100.00
73941;BME280;62294;48.554;10.202;2023-02-03T04:10:35;97210.22;;;3.91;100.00
73941;BME280;62294;48.554;10.202;2023-02-03T04:13:03;97211.94;;;4.00;100.00
73941;BME280;62294;48.554;10.202;2023-02-03T04:15:30;97221.25;;;3.95;100.00
73941;BME280;62294;48.554;10.202;2023-02-03T04:17:57;97227.22;;;3.97;100.00
73941;BME280;62294;48.554;10.202;2023-02-03T04:20:24;97236.50;;;3.91;100.00
73941;BME280;62294;48.554;10.202;2023-02-03T04:22:51;97229.13;;;3.95;100.00
73941;BME280;62294;48.554;10.202;2023-02-03T04:25:18;97222.97;;;3.86;100.00
73941;BME280;62294;48.554;10.202;2023-02-03T04:27:45;97219.81;;;3.83;100.00
73941;BME280;62294;48.554;10.202;2023-02-03T04:30:12;97219.66;;;3.84;100.00
73941;BME280;62294;48.554;10.202;2023-02-03T04:32:39;97211.09;;;3.82;100.00
73941;BME280;62294;48.554;10.202;2023-02-03T04:35:06;97188.41;;;3.81;100.00
73941;BME280;62294;48.554;10.202;2023-02-03T04:37:33;97195.31;;;3.82;100.00
73941;BME280;62294;48.554;10.202;2023-02-03T04:40:00;97192.84;;;3.81;100.00
73941;BME280;62294;48.554;10.202;2023-02-03T04:42:26;97187.44;;;3.82;100.00
73941;BME280;62294;48.554;10.202;2023-02-03T04:44:53;97198.41;;;3.78;100.00
73941;BME280;62294;48.554;10.202;2023-02-03T04:47:19;97209.44;;;3.81;100.00
73941;BME280;62294;48.554;10.202;2023-02-03T04:49:46;97206.22;;;3.87;100.00
73941;BME280;62294;48.554;10.202;2023-02-03T04:52:14;97209.31;;;3.83;100.00
73941;BME280;62294;48.554;10.202;2023-02-03T04:54:40;97199.63;;;3.83;100.00
73941;BME280;62294;48.554;10.202;2023-02-03T04:57:09;97197.44;;;3.79;100.00
73941;BME280;62294;48.554;10.202;2023-02-03T04:59:36;97196.28;;;3.81;100.00
73941;BME280;62294;48.554;10.202;2023-02-03T05:02:03;97200.88;;;3.79;100.00
73941;BME280;62294;48.554;10.202;2023-02-03T05:04:31;97196.44;;;3.80;100.00
73941;BME280;62294;48.554;10.202;2023-02-03T05:06:57;97188.09;;;3.84;100.00
73941;BME280;62294;48.554;10.202;2023-02-03T05:09:24;97196.09;;;3.92;100.00
73941;BME280;62294;48.554;10.202;2023-02-03T05:11:51;97188.72;;;3.78;100.00
73941;BME280;62294;48.554;10.202;2023-02-03T05:14:18;97175.19;;;3.73;100.00
73941;BME280;62294;48.554;10.202;2023-02-03T05:16:45;97167.59;;;3.70;100.00
73941;BME280;62294;48.554;10.202;2023-02-03T05:19:12;97166.91;;;3.68;100.00
73941;BME280;62294;48.554;10.202;2023-02-03T05:21:39;97154.00;;;3.75;100.00
73941;BME280;62294;48.554;10.202;2023-02-03T05:24:05;97168.56;;;3.69;100.00
73941;BME280;62294;48.554;10.202;2023-02-03T05:26:34;97162.50;;;3.69;100.00
73941;BME280;62294;48.554;10.202;2023-02-03T05:29:01;97181.28;;;3.74;100.00
73941;BME280;62294;48.554;10.202;2023-02-03T05:31:27;97170.81;;;3.64;100.00
73941;BME280;62294;48.554;10.202;2023-02-03T05:33:54;97173.91;;;3.15;100.00
73941;BME280;62294;48.554;10.202;2023-02-03T05:36:21;97171.75;;;3.01;100.00
73941;BME280;62294;48.554;10.202;2023-02-03T05:38:48;97161.78;;;2.95;100.00
73941;BME280;62294;48.554;10.202;2023-02-03T05:41:15;97162.22;;;2.90;100.00
73941;BME280;62294;48.554;10.202;2023-02-03T05:44:00;97163.91;;;2.91;100.00
73941;BME280;62294;48.554;10.202;2023-02-03T05:46:26;97167.47;;;2.90;100.00
73941;BME280;62294;48.554;10.202;2023-02-03T05:48:53;97180.34;;;2.93;100.00
73941;BME280;62294;48.554;10.202;2023-02-03T05:51:19;97203.81;;;2.95;100.00
73941;BME280;62294;48.554;10.202;2023-02-03T05:53:46;97201.59;;;3.00;100.00
73941;BME280;62294;48.554;10.202;2023-02-03T05:56:13;97205.19;;;2.99;100.00
73941;BME280;62294;48.554;10.202;2023-02-03T05:58:39;97214.06;;;2.88;100.00
73941;BME280;62294;48.554;10.202;2023-02-03T06:01:06;97211.31;;;2.90;100.00
73941;BME280;62294;48.554;10.202;2023-02-03T06:03:33;97206.34;;;2.86;100.00
73941;BME280;62294;48.554;10.202;2023-02-03T06:05:59;97196.69;;;2.77;100.00
73941;BME280;62294;48.554;10.202;2023-02-03T06:08:26;97208.59;;;2.72;100.00
73941;BME280;62294;48.554;10.202;2023-02-03T06:11:00;97196.47;;;2.61;100.00
73941;BME280;62294;48.554;10.202;2023-02-03T06:13:27;97189.28;;;2.54;100.00
73941;BME280;62294;48.554;10.202;2023-02-03T06:15:54;97193.44;;;2.56;100.00
73941;BME280;62294;48.554;10.202;2023-02-03T06:18:21;97192.59;;;2.56;100.00
73941;BME280;62294;48.554;10.202;2023-02-03T06:20:49;97184.19;;;2.52;100.00
73941;BME280;62294;48.554;10.202;2023-02-03T06:23:16;97178.53;;;2.47;100.00
73941;BME280;62294;48.554;10.202;2023-02-03T06:25:46;97182.94;;;2.47;100.00
73941;BME280;62294;48.554;10.202;2023-02-03T06:28:13;97202.16;;;2.47;100.00
73941;BME280;62294;48.554;10.202;2023-02-03T06:30:40;97200.50;;;2.46;100.00
73941;BME280;62294;48.554;10.202;2023-02-03T06:33:07;97198.84;;;2.45;100.00
73941;BME280;62294;48.554;10.202;2023-02-03T06:35:33;97211.81;;;2.47;100.00
73941;BME280;62294;48.554;10.202;2023-02-03T06:38:01;97211.81;;;2.47;100.00
73941;BME280;62294;48.554;10.202;2023-02-03T06:40:27;97209.34;;;2.45;100.00
73941;BME280;62294;48.554;10.202;2023-02-03T06:42:55;97199.53;;;2.47;100.00
73941;BME280;62294;48.554;10.202;2023-02-03T06:45:22;97218.88;;;2.46;100.00
73941;BME280;62294;48.554;10.202;2023-02-03T06:47:50;97214.59;;;2.45;100.00
73941;BME280;62294;48.554;10.202;2023-02-03T06:50:16;97205.19;;;2.43;100.00
73941;BME280;62294;48.554;10.202;2023-02-03T06:52:43;97205.03;;;2.44;100.00
73941;BME280;62294;48.554;10.202;2023-02-03T06:55:10;97207.66;;;2.44;100.00
73941;BME280;62294;48.554;10.202;2023-02-03T06:57:46;97213.06;;;2.52;100.00
73941;BME280;62294;48.554;10.202;2023-02-03T07:00:16;97198.28;;;2.51;100.00
73941;BME280;62294;48.554;10.202;2023-02-03T07:02:44;97199.53;;;2.47;100.00
73941;BME280;62294;48.554;10.202;2023-02-03T07:05:11;97200.22;;;2.40;100.00
73941;BME280;62294;48.554;10.202;2023-02-03T07:07:38;97191.97;;;2.35;100.00
73941;BME280;62294;48.554;10.202;2023-02-03T07:10:05;97189.47;;;2.33;100.00
73941;BME280;62294;48.554;10.202;2023-02-03T07:12:32;97169.16;;;2.35;100.00
73941;BME280;62294;48.554;10.202;2023-02-03T07:14:59;97178.84;;;2.35;100.00
73941;BME280;62294;48.554;10.202;2023-02-03T07:17:25;97174.72;;;2.32;100.00
73941;BME280;62294;48.554;10.202;2023-02-03T07:19:51;97180.38;;;2.37;100.00
73941;BME280;62294;48.554;10.202;2023-02-03T07:22:18;97173.44;;;2.36;100.00
73941;BME280;62294;48.554;10.202;2023-02-03T07:24:45;97166.97;;;2.31;100.00
73941;BME280;62294;48.554;10.202;2023-02-03T07:27:11;97171.94;;;2.34;100.00
73941;BME280;62294;48.554;10.202;2023-02-03T07:29:38;97166.97;;;2.31;100.00
73941;BME280;62294;48.554;10.202;2023-02-03T07:32:05;97174.72;;;2.32;100.00
73941;BME280;62294;48.554;10.202;2023-02-03T07:34:31;97169.47;;;2.32;100.00
73941;BME280;62294;48.554;10.202;2023-02-03T07:36:58;97154.56;;;2.33;100.00
73941;BME280;62294;48.554;10.202;2023-02-03T07:39:25;97153.72;;;2.32;100.00
73941;BME280;62294;48.554;10.202;2023-02-03T07:41:51;97162.97;;;2.36;100.00
73941;BME280;62294;48.554;10.202;2023-02-03T07:44:18;97151.50;;;2.37;100.00
73941;BME280;62294;48.554;10.202;2023-02-03T07:46:45;97153.16;;;2.38;100.00
73941;BME280;62294;48.554;10.202;2023-02-03T07:49:11;97153.16;;;2.38;100.00
73941;BME280;62294;48.554;10.202;2023-02-03T07:51:38;97169.97;;;2.45;100.00
73941;BME280;62294;48.554;10.202;2023-02-03T07:54:05;97175.06;;;2.47;100.00
73941;BME280;62294;48.554;10.202;2023-02-03T07:56:32;97169.72;;;2.48;100.00
73941;BME280;62294;48.554;10.202;2023-02-03T07:58:59;97174.97;;;2.48;100.00
73941;BME280;62294;48.554;10.202;2023-02-03T08:01:26;97181.00;;;2.58;100.00
73941;BME280;62294;48.554;10.202;2023-02-03T08:03:52;97197.72;;;2.57;100.00
73941;BME280;62294;48.554;10.202;2023-02-03T08:06:20;97205.28;;;2.60;100.00
73941;BME280;62294;48.554;10.202;2023-02-03T08:08:47;97218.28;;;2.62;100.00
73941;BME280;62294;48.554;10.202;2023-02-03T08:11:15;97215.66;;;2.62;100.00
73941;BME280;62294;48.554;10.202;2023-02-03T08:13:41;97215.25;;;2.66;100.00
73941;BME280;62294;48.554;10.202;2023-02-03T08:16:08;97227.38;;;2.67;100.00
73941;BME280;62294;48.554;10.202;2023-02-03T08:18:34;97217.97;;;2.74;100.00
73941;BME280;62294;48.554;10.202;2023-02-03T08:21:01;97217.97;;;2.74;100.00
73941;BME280;62294;48.554;10.202;2023-02-03T08:23:30;97222.09;;;2.86;100.00
73941;BME280;62294;48.554;10.202;2023-02-03T08:25:56;97211.75;;;2.85;100.00
73941;BME280;62294;48.554;10.202;2023-02-03T08:28:24;97226.94;;;2.81;100.00
73941;BME280;62294;48.554;10.202;2023-02-03T08:30:51;97206.06;;;2.90;100.00
73941;BME280;62294;48.554;10.202;2023-02-03T08:33:17;97197.78;;;2.84;100.00
73941;BME280;62294;48.554;10.202;2023-02-03T08:35:49;97197.09;;;2.82;100.00
73941;BME280;62294;48.554;10.202;2023-02-03T08:38:16;97211.88;;;2.83;100.00
73941;BME280;62294;48.554;10.202;2023-02-03T08:40:42;97190.75;;;2.75;100.00
73941;BME280;62294;48.554;10.202;2023-02-03T08:43:09;97186.19;;;2.77;100.00
73941;BME280;62294;48.554;10.202;2023-02-03T08:45:38;97197.81;;;2.75;100.00
73941;BME280;62294;48.554;10.202;2023-02-03T08:48:05;97214.38;;;2.75;100.00
73941;BME280;62294;48.554;10.202;2023-02-03T08:50:32;97197.38;;;2.79;100.00
73941;BME280;62294;48.554;10.202;2023-02-03T08:52:59;97210.22;;;2.82;100.00
73941;BME280;62294;48.554;10.202;2023-02-03T08:55:25;97201.13;;;2.77;100.00
73941;BME280;62294;48.554;10.202;2023-02-03T08:57:52;97218.38;;;2.79;100.00
73941;BME280;62294;48.554;10.202;2023-02-03T09:00:19;97215.16;;;2.85;100.00
73941;BME280;62294;48.554;10.202;2023-02-03T09:02:46;97217.28;;;2.82;100.00
73941;BME280;62294;48.554;10.202;2023-02-03T09:05:12;97218.78;;;2.84;100.00
73941;BME280;62294;48.554;10.202;2023-02-03T09:07:41;97211.59;;;2.86;100.00
73941;BME280;62294;48.554;10.202;2023-02-03T09:10:07;97206.06;;;2.90;100.00
73941;BME280;62294;48.554;10.202;2023-02-03T09:12:35;97194.84;;;2.87;100.00
73941;BME280;62294;48.554;10.202;2023-02-03T09:15:01;97199.41;;;2.95;100.00
73941;BME280;62294;48.554;10.202;2023-02-03T09:17:28;97214.44;;;3.03;100.00
73941;BME280;62294;48.554;10.202;2023-02-03T09:19:54;97206.72;;;3.01;100.00
73941;BME280;62294;48.554;10.202;2023-02-03T09:22:21;97209.03;;;3.04;100.00
73941;BME280;62294;48.554;10.202;2023-02-03T09:24:47;97188.03;;;3.04;100.00
73941;BME280;62294;48.554;10.202;2023-02-03T09:27:16;97187.50;;;3.01;100.00
73941;BME280;62294;48.554;10.202;2023-02-03T09:29:42;97180.47;;;3.28;100.00
73941;BME280;62294;48.554;10.202;2023-02-03T09:32:08;97179.91;;;3.25;100.00
73941;BME280;62294;48.554;10.202;2023-02-03T09:34:39;97181.56;;;3.26;100.00
73941;BME280;62294;48.554;10.202;2023-02-03T09:37:07;97180.50;;;3.19;100.00
73941;BME280;62294;48.554;10.202;2023-02-03T09:39:33;97183.13;;;3.19;100.00
73941;BME280;62294;48.554;10.202;2023-02-03T09:42:18;97208.41;;;3.20;100.00
73941;BME280;62294;48.554;10.202;2023-02-03T09:45:13;97211.16;;;3.28;100.00
73941;BME280;62294;48.554;10.202;2023-02-03T09:47:43;97210.03;;;3.30;100.00
73941;BME280;62294;48.554;10.202;2023-02-03T09:50:19;97198.69;;;3.30;100.00
73941;BME280;62294;48.554;10.202;2023-02-03T09:52:46;97205.91;;;3.28;100.00
73941;BME280;62294;48.554;10.202;2023-02-03T09:58:32;97188.63;;;3.25;100.00
73941;BME280;62294;48.554;10.202;2023-02-03T10:01:00;97197.34;;;3.26;100.00
73941;BME280;62294;48.554;10.202;2023-02-03T10:09:01;97175.28;;;3.36;100.00
73941;BME280;62294;48.554;10.202;2023-02-03T10:19:54;97186.69;;;3.45;100.00
73941;BME280;62294;48.554;10.202;2023-02-03T10:22:25;97168.69;;;3.50;100.00
73941;BME280;62294;48.554;10.202;2023-02-03T10:25:02;97179.84;;;3.62;100.00
73941;BME280;62294;48.554;10.202;2023-02-03T10:27:32;97187.28;;;3.66;100.00
73941;BME280;62294;48.554;10.202;2023-02-03T10:32:28;97193.66;;;3.81;100.00
73941;BME280;62294;48.554;10.202;2023-02-03T10:34:55;97205.63;;;3.93;100.00
73941;BME280;62294;48.554;10.202;2023-02-03T10:37:29;97198.13;;;3.98;100.00
73941;BME280;62294;48.554;10.202;2023-02-03T10:39:58;97197.19;;;4.25;100.00
73941;BME280;62294;48.554;10.202;2023-02-03T10:42:27;97193.81;;;4.32;100.00
73941;BME280;62294;48.554;10.202;2023-02-03T10:45:14;97194.59;;;4.51;100.00
73941;BME280;62294;48.554;10.202;2023-02-03T10:47:52;97198.63;;;4.37;100.00
73941;BME280;62294;48.554;10.202;2023-02-03T10:50:23;97202.41;;;4.60;100.00
73941;BME280;62294;48.554;10.202;2023-02-03T10:55:46;97194.06;;;4.65;100.00
73941;BME280;62294;48.554;10.202;2023-02-03T10:58:18;97196.41;;;4.76;100.00
73941;BME280;62294;48.554;10.202;2023-02-03T11:00:53;97190.63;;;4.98;100.00
73941;BME280;62294;48.554;10.202;2023-02-03T11:03:27;97161.88;;;5.13;100.00
73941;BME280;62294;48.554;10.202;2023-02-03T11:06:07;97166.97;;;5.06;100.00
73941;BME280;62294;48.554;10.202;2023-02-03T11:08:38;97172.81;;;5.26;100.00
73941;BME280;62294;48.554;10.202;2023-02-03T11:11:07;97180.47;;;5.11;100.00
73941;BME280;62294;48.554;10.202;2023-02-03T11:13:34;97182.88;;;5.30;100.00
73941;BME280;62294;48.554;10.202;2023-02-03T11:16:09;97179.59;;;5.36;100.00
73941;BME280;62294;48.554;10.202;2023-02-03T11:21:25;97152.78;;;4.73;100.00
73941;BME280;62294;48.554;10.202;2023-02-03T11:26:53;97138.22;;;4.87;100.00
73941;BME280;62294;48.554;10.202;2023-02-03T11:29:28;97138.25;;;4.95;100.00
73941;BME280;62294;48.554;10.202;2023-02-03T11:31:58;97133.00;;;5.03;100.00
73941;BME280;62294;48.554;10.202;2023-02-03T11:34:33;97138.72;;;5.32;100.00
73941;BME280;62294;48.554;10.202;2023-02-03T11:37:38;97120.06;;;5.18;100.00
73941;BME280;62294;48.554;10.202;2023-02-03T11:42:34;97104.69;;;5.05;100.00
73941;BME280;62294;48.554;10.202;2023-02-03T11:45:14;97121.56;;;5.20;100.00
73941;BME280;62294;48.554;10.202;2023-02-03T11:47:58;97133.44;;;5.32;100.00
73941;BME280;62294;48.554;10.202;2023-02-03T11:50:30;97134.38;;;5.73;100.00
73941;BME280;62294;48.554;10.202;2023-02-03T12:01:26;97104.75;;;5.95;100.00
73941;BME280;62294;48.554;10.202;2023-02-03T12:04:38;97096.13;;;5.69;100.00
73941;BME280;62294;48.554;10.202;2023-02-03T12:17:40;97056.91;;;5.74;100.00
73941;BME280;62294;48.554;10.202;2023-02-03T12:33:58;97057.22;;;6.19;100.00
73941;BME280;62294;48.554;10.202;2023-02-03T12:36:34;97039.91;;;6.25;100.00
73941;BME280;62294;48.554;10.202;2023-02-03T12:39:20;97037.81;;;5.88;100.00
73941;BME280;62294;48.554;10.202;2023-02-03T12:41:58;97037.66;;;5.98;100.00
73941;BME280;62294;48.554;10.202;2023-02-03T12:44:47;97029.41;;;5.93;100.00
73941;BME280;62294;48.554;10.202;2023-02-03T12:50:05;97016.84;;;6.03;100.00
73941;BME280;62294;48.554;10.202;2023-02-03T12:52:41;97013.69;;;5.83;100.00
73941;BME280;62294;48.554;10.202;2023-02-03T12:57:57;97015.03;;;5.87;100.00
73941;BME280;62294;48.554;10.202;2023-02-03T13:03:35;96998.38;;;5.87;100.00
73941;BME280;62294;48.554;10.202;2023-02-03T13:14:22;97000.84;;;5.96;100.00
73941;BME280;62294;48.554;10.202;2023-02-03T13:16:57;96992.94;;;6.04;100.00
73941;BME280;62294;48.554;10.202;2023-02-03T13:19:32;97008.59;;;5.73;100.00
73941;BME280;62294;48.554;10.202;2023-02-03T13:22:10;97025.06;;;5.75;100.00
73941;BME280;62294;48.554;10.202;2023-02-03T13:24:39;97039.91;;;5.77;100.00
73941;BME280;62294;48.554;10.202;2023-02-03T13:33:33;97008.13;;;5.70;100.00
73941;BME280;62294;48.554;10.202;2023-02-03T13:41:46;96993.75;;;5.48;100.00
73941;BME280;62294;48.554;10.202;2023-02-03T13:44:19;97000.19;;;5.46;100.00
73941;BME280;62294;48.554;10.202;2023-02-03T13:46:49;96995.06;;;5.52;100.00
73941;BME280;62294;48.554;10.202;2023-02-03T13:49:27;97002.63;;;5.23;100.00
73941;BME280;62294;48.554;10.202;2023-02-03T13:51:54;96995.38;;;5.25;100.00
73941;BME280;62294;48.554;10.202;2023-02-03T13:54:28;96978.88;;;5.07;100.00
73941;BME280;62294;48.554;10.202;2023-02-03T13:57:01;96976.25;;;4.99;100.00
73941;BME280;62294;48.554;10.202;2023-02-03T13:59:42;96979.22;;;5.12;100.00
73941;BME280;62294;48.554;10.202;2023-02-03T14:15:29;96993.66;;;4.84;100.00
73941;BME280;62294;48.554;10.202;2023-02-03T14:18:33;96987.41;;;4.93;100.00
73941;BME280;62294;48.554;10.202;2023-02-03T14:21:23;96996.28;;;4.76;100.00
73941;BME280;62294;48.554;10.202;2023-02-03T14:23:58;97002.72;;;4.81;100.00
73941;BME280;62294;48.554;10.202;2023-02-03T14:26:35;97004.53;;;4.81;100.00
73941;BME280;62294;48.554;10.202;2023-02-03T14:29:04;97016.41;;;4.93;100.00
73941;BME280;62294;48.554;10.202;2023-02-03T14:31:51;97005.53;;;4.88;100.00
73941;BME280;62294;48.554;10.202;2023-02-03T14:34:28;97009.50;;;4.92;100.00
73941;BME280;62294;48.554;10.202;2023-02-03T14:36:55;97011.97;;;4.93;100.00
73941;BME280;62294;48.554;10.202;2023-02-03T14:50:38;96983.22;;;4.58;100.00
73941;BME280;62294;48.554;10.202;2023-02-03T14:53:25;96971.56;;;4.61;100.00
73941;BME280;62294;48.554;10.202;2023-02-03T14:59:19;96992.28;;;4.64;100.00
73941;BME280;62294;48.554;10.202;2023-02-03T15:06:42;96985.22;;;4.72;100.00
73941;BME280;62294;48.554;10.202;2023-02-03T15:09:38;96997.72;;;4.70;100.00
73941;BME280;62294;48.554;10.202;2023-02-03T15:12:22;97002.41;;;4.92;100.00
73941;BME280;62294;48.554;10.202;2023-02-03T15:14:49;97005.50;;;4.80;100.00
73941;BME280;62294;48.554;10.202;2023-02-03T15:17:26;97009.75;;;4.73;100.00
73941;BME280;62294;48.554;10.202;2023-02-03T15:19:53;97006.28;;;4.72;100.00
73941;BME280;62294;48.554;10.202;2023-02-03T15:22:24;96999.34;;;4.63;100.00
73941;BME280;62294;48.554;10.202;2023-02-03T15:24:53;97003.28;;;4.59;100.00
73941;BME280;62294;48.554;10.202;2023-02-03T15:27:27;96998.38;;;4.64;100.00
73941;BME280;62294;48.554;10.202;2023-02-03T15:29:54;97006.81;;;4.76;100.00